Orbital elements of COSMOS 2251 DEB
| Launched | 15 June 1993 |
| Flight ended | – |
| Launch site | Plesetsk Missile and Space Complex, Russia |
| Owner | Commonwealth of Independent States (former USSR) |
| NORAD ID | 35993 |
| Date fetched |
Epoch osculation |
Inc. [°] |
Ecc. | RA asc node [hr] |
Arg Peri. [°] |
Mean anom [°] |
Mean motion [rev/day] |
Abs. mag |
| Date fetched |
Epoch osculation |
Inc. [°] |
Ecc. | RA asc node [hr] |
Arg Peri. [°] |
Mean anom [°] |
Mean motion [rev/day] |
Abs. mag |
| 2026 May 07 17:58 | 2026 May 03 02:29:36 | 74.0150 | 0.00314 | 4.0082 | 211.4501 | 148.4794 | 14.66430 | – |
| 2026 May 06 17:57 | 2026 May 03 02:29:36 | 74.0150 | 0.00314 | 4.0082 | 211.4501 | 148.4794 | 14.66430 | – |
| 2026 May 05 17:57 | 2026 May 03 02:29:36 | 74.0150 | 0.00314 | 4.0082 | 211.4501 | 148.4794 | 14.66430 | – |
| 2026 May 04 17:57 | 2026 Apr 30 12:16:31 | 74.0131 | 0.00314 | 4.3417 | 216.9139 | 148.4794 | 14.66430 | – |
| 2026 May 03 17:57 | 2026 Apr 30 12:16:31 | 74.0131 | 0.00314 | 4.3417 | 216.9139 | 148.4794 | 14.66430 | – |
| 2026 May 02 17:57 | 2026 Apr 30 12:16:31 | 74.0131 | 0.00314 | 4.3417 | 216.9139 | 148.4794 | 14.66430 | – |
| 2026 May 01 17:56 | 2026 Apr 30 12:16:31 | 74.0131 | 0.00314 | 4.3417 | 216.9139 | 148.4794 | 14.66430 | – |
| 2026 Apr 30 17:56 | 2026 Apr 30 12:16:31 | 74.0131 | 0.00314 | 4.3417 | 216.9139 | 148.4794 | 14.66430 | – |
| 2026 Apr 29 17:57 | 2026 Apr 23 14:54:10 | 74.0130 | 0.00317 | 5.2285 | 231.9734 | 148.4794 | 14.66430 | – |
| 2026 Apr 28 17:56 | 2026 Apr 23 14:54:10 | 74.0130 | 0.00317 | 5.2285 | 231.9734 | 148.4794 | 14.66430 | – |
| 2026 Apr 27 17:58 | 2026 Apr 23 14:54:10 | 74.0130 | 0.00317 | 5.2285 | 231.9734 | 148.4794 | 14.66430 | – |
| 2026 Apr 26 17:58 | 2026 Apr 23 14:54:10 | 74.0130 | 0.00317 | 5.2285 | 231.9734 | 148.4794 | 14.66430 | – |
| 2026 Apr 25 17:58 | 2026 Apr 23 14:54:10 | 74.0130 | 0.00317 | 5.2285 | 231.9734 | 148.4794 | 14.66430 | – |
| 2026 Apr 24 17:59 | 2026 Apr 23 14:54:10 | 74.0130 | 0.00317 | 5.2285 | 231.9734 | 148.4794 | 14.66430 | – |
| 2026 Apr 23 17:57 | 2026 Apr 18 07:11:10 | 74.0122 | 0.00319 | 5.9133 | 243.3000 | 148.4794 | 14.66430 | – |
| 2026 Apr 22 17:57 | 2026 Apr 18 07:11:10 | 74.0122 | 0.00319 | 5.9133 | 243.3000 | 148.4794 | 14.66430 | – |
| 2026 Apr 21 17:57 | 2026 Apr 18 07:11:10 | 74.0122 | 0.00319 | 5.9133 | 243.3000 | 148.4794 | 14.66430 | – |
| 2026 Apr 20 17:57 | 2026 Apr 18 07:11:10 | 74.0122 | 0.00319 | 5.9133 | 243.3000 | 148.4794 | 14.66430 | – |
| 2026 Apr 19 17:58 | 2026 Apr 18 07:11:10 | 74.0122 | 0.00319 | 5.9133 | 243.3000 | 148.4794 | 14.66430 | – |
| 2026 Apr 18 17:56 | 2026 Apr 13 06:01:03 | 74.0117 | 0.00320 | 6.5631 | 253.9590 | 148.4794 | 14.66430 | – |
| 2026 Apr 16 17:57 | 2026 Apr 13 06:01:03 | 74.0117 | 0.00320 | 6.5631 | 253.9590 | 148.4794 | 14.66430 | – |
| 2026 Apr 14 17:57 | 2026 Apr 13 06:01:03 | 74.0117 | 0.00320 | 6.5631 | 253.9590 | 148.4794 | 14.66430 | – |
| 2026 Apr 13 17:57 | 2026 Apr 13 06:01:03 | 74.0117 | 0.00320 | 6.5631 | 253.9590 | 148.4794 | 14.66430 | – |
| 2026 Apr 12 17:57 | 2026 Apr 06 18:27:38 | 74.0119 | 0.00322 | 7.3972 | 267.5607 | 148.4794 | 14.66430 | – |
| 2026 Apr 11 17:57 | 2026 Apr 06 18:27:38 | 74.0119 | 0.00322 | 7.3972 | 267.5607 | 148.4794 | 14.66430 | – |
| 2026 Apr 10 17:58 | 2026 Apr 06 18:27:38 | 74.0119 | 0.00322 | 7.3972 | 267.5607 | 148.4794 | 14.66430 | – |